createdAt,value
2018-02-14T00:00:06.167Z,21.03
2018-02-14T00:02:33.575Z,16.17
2018-02-14T00:05:01.024Z,14.50
2018-02-14T00:07:28.459Z,16.93
2018-02-14T00:09:56.662Z,12.47
2018-02-14T00:12:24.868Z,16.93
2018-02-14T00:14:53.083Z,13.20
2018-02-14T00:17:20.524Z,13.77
2018-02-14T00:19:47.976Z,16.90
2018-02-14T00:22:15.418Z,16.13
2018-02-14T00:24:42.863Z,17.63
2018-02-14T00:27:10.304Z,18.57
2018-02-14T00:29:37.747Z,15.07
2018-02-14T00:32:05.949Z,19.77
2018-02-14T00:34:33.390Z,17.97
2018-02-14T00:37:00.818Z,15.63
2018-02-14T00:39:28.258Z,13.70
2018-02-14T00:41:55.710Z,16.43
2018-02-14T00:44:23.152Z,13.90
2018-02-14T00:46:51.351Z,14.90
2018-02-14T00:49:18.799Z,14.27
2018-02-14T00:51:46.243Z,13.13
2018-02-14T00:54:13.687Z,17.10
2018-02-14T00:56:41.890Z,15.20
2018-02-14T00:59:09.337Z,19.57
2018-02-14T01:01:36.771Z,14.70
2018-02-14T01:04:04.208Z,16.23
2018-02-14T01:06:31.655Z,16.83
2018-02-14T01:08:59.099Z,15.90
2018-02-14T01:11:26.565Z,19.60
2018-02-14T01:13:53.991Z,13.43
2018-02-14T01:16:21.448Z,14.83
2018-02-14T01:18:48.888Z,15.47
2018-02-14T01:21:16.322Z,13.17
2018-02-14T01:23:43.758Z,17.10
2018-02-14T01:26:11.967Z,15.40
2018-02-14T01:28:40.175Z,11.43
2018-02-14T01:31:08.383Z,15.83
2018-02-14T01:33:35.823Z,13.90
2018-02-14T01:36:03.266Z,13.10
2018-02-14T01:38:30.713Z,18.73
2018-02-14T01:40:58.914Z,15.90
2018-02-14T01:43:26.355Z,19.23
2018-02-14T01:45:53.802Z,18.30
2018-02-14T01:48:21.235Z,21.80
2018-02-14T01:50:49.455Z,17.53
2018-02-14T01:53:16.901Z,14.70
2018-02-14T01:55:44.354Z,14.50
2018-02-14T01:58:11.786Z,15.97
2018-02-14T02:00:39.999Z,16.07
2018-02-14T02:03:07.447Z,15.57
2018-02-14T02:05:34.899Z,13.77
2018-02-14T02:10:35.318Z,16.70
2018-02-14T02:13:02.755Z,12.87
2018-02-14T02:15:30.195Z,19.93
2018-02-14T02:17:58.396Z,13.83
2018-02-14T02:20:26.618Z,13.53
2018-02-14T02:22:54.055Z,13.60
2018-02-14T02:25:21.491Z,23.83
2018-02-14T02:27:48.927Z,14.53
2018-02-14T02:30:16.586Z,16.40
2018-02-14T02:32:44.182Z,12.97
2018-02-14T02:35:11.622Z,15.17
2018-02-14T02:37:39.072Z,18.33
2018-02-14T02:40:18.246Z,14.53
2018-02-14T02:42:45.673Z,14.20
2018-02-14T02:45:13.121Z,18.93
2018-02-14T02:47:40.562Z,33.80
2018-02-14T02:50:08.008Z,15.40
2018-02-14T02:52:36.207Z,16.20
2018-02-14T02:55:04.418Z,17.33
2018-02-14T02:57:31.855Z,15.53
2018-02-14T02:59:59.301Z,16.03
2018-02-14T03:02:26.742Z,16.00
2018-02-14T03:04:54.938Z,16.77
2018-02-14T03:07:23.146Z,20.00
2018-02-14T03:09:51.346Z,22.73
2018-02-14T03:12:18.789Z,17.50
2018-02-14T03:14:46.218Z,16.00
2018-02-14T03:17:13.659Z,18.30
2018-02-14T03:19:41.086Z,15.67
2018-02-14T03:22:08.539Z,15.97
2018-02-14T03:24:36.744Z,20.60
2018-02-14T03:27:04.950Z,14.87
2018-02-14T03:29:32.382Z,12.37
2018-02-14T03:31:59.822Z,18.00
2018-02-14T03:34:27.250Z,16.03
2018-02-14T03:36:54.690Z,13.00
2018-02-14T03:39:22.127Z,18.80
2018-02-14T03:41:49.571Z,14.90
2018-02-14T03:44:17.008Z,16.20
2018-02-14T03:46:45.206Z,12.23
2018-02-14T03:49:12.647Z,17.63
2018-02-14T03:51:40.092Z,17.70
2018-02-14T03:54:07.522Z,18.40
2018-02-14T03:56:34.968Z,12.97
2018-02-14T03:59:02.407Z,13.27
2018-02-14T04:01:30.606Z,14.87
2018-02-14T04:03:58.041Z,15.87
2018-02-14T04:06:25.474Z,14.97
2018-02-14T04:08:52.906Z,16.70
2018-02-14T04:11:20.342Z,13.40
2018-02-14T04:13:47.820Z,19.63
2018-02-14T04:16:15.264Z,11.70
2018-02-14T04:18:42.689Z,16.40
2018-02-14T04:21:10.126Z,13.70
2018-02-14T04:23:37.563Z,18.27
2018-02-14T04:26:05.000Z,17.13
2018-02-14T04:28:33.193Z,18.10
2018-02-14T04:31:01.404Z,15.93
2018-02-14T04:33:29.598Z,14.03
2018-02-14T04:35:57.809Z,13.40
2018-02-14T04:38:25.239Z,12.73
2018-02-14T04:40:53.442Z,21.83
2018-02-14T04:43:20.874Z,17.20
2018-02-14T04:45:48.319Z,15.77
2018-02-14T04:48:15.749Z,15.13
2018-02-14T04:50:43.183Z,18.27
2018-02-14T04:53:10.614Z,21.00
2018-02-14T04:55:38.054Z,28.03
2018-02-14T04:58:06.267Z,29.93
2018-02-14T05:00:33.702Z,32.90
2018-02-14T05:03:01.148Z,20.87
2018-02-14T05:05:28.579Z,20.33
2018-02-14T05:07:56.022Z,18.30
2018-02-14T05:10:23.455Z,19.73
2018-02-14T05:12:51.654Z,19.10
2018-02-14T05:15:19.858Z,25.77
2018-02-14T05:17:48.103Z,46.40
2018-02-14T05:20:15.536Z,53.67
2018-02-14T05:22:43.814Z,44.37
2018-02-14T05:25:11.252Z,29.43
2018-02-14T05:27:38.694Z,27.90
2018-02-14T05:30:06.904Z,24.50
2018-02-14T05:32:34.352Z,16.00
2018-02-14T05:35:01.782Z,16.53
2018-02-14T05:37:29.224Z,21.13
2018-02-14T05:39:56.663Z,19.10
2018-02-14T05:42:24.105Z,24.07
2018-02-14T05:44:52.303Z,18.20
2018-02-14T05:47:20.514Z,16.37
2018-02-14T05:49:47.946Z,18.70
2018-02-14T05:52:15.387Z,19.77
2018-02-14T05:54:42.825Z,16.50
2018-02-14T05:57:10.262Z,19.83
2018-02-14T05:59:37.702Z,21.23
2018-02-14T06:02:05.915Z,15.00
2018-02-14T06:04:33.347Z,14.80
2018-02-14T06:07:00.782Z,18.97
2018-02-14T06:09:28.218Z,15.87
2018-02-14T06:11:55.655Z,15.30
2018-02-14T06:14:23.099Z,17.60
2018-02-14T06:16:51.303Z,12.80
2018-02-14T06:19:18.738Z,14.13
2018-02-14T06:21:46.173Z,16.07
2018-02-14T06:24:13.611Z,22.03
2018-02-14T06:26:41.053Z,39.60
2018-02-14T06:29:08.487Z,23.90
2018-02-14T06:31:36.703Z,22.73
2018-02-14T06:34:04.903Z,20.50
2018-02-14T06:36:32.337Z,15.50
2018-02-14T06:38:59.779Z,14.10
2018-02-14T06:41:27.205Z,15.80
2018-02-14T06:43:54.646Z,16.10
2018-02-14T06:46:22.119Z,12.53
2018-02-14T06:48:49.563Z,15.00
2018-02-14T06:51:17.762Z,17.10
2018-02-14T06:53:45.976Z,16.30
2018-02-14T06:56:14.171Z,20.30
2018-02-14T06:58:42.379Z,11.63
2018-02-14T07:01:09.806Z,16.60
2018-02-14T07:03:37.243Z,18.03
2018-02-14T07:06:04.882Z,16.37
2018-02-14T07:08:32.322Z,13.40
2018-02-14T07:10:59.763Z,18.90
2018-02-14T07:13:27.199Z,18.30
2018-02-14T07:15:54.626Z,17.27
2018-02-14T07:18:22.070Z,17.73
2018-02-14T07:20:49.502Z,15.07
2018-02-14T07:23:22.679Z,21.40
2018-02-14T07:25:50.109Z,15.70
2018-02-14T07:28:17.554Z,20.43
2018-02-14T07:30:44.987Z,17.97
2018-02-14T07:33:12.426Z,19.03
2018-02-14T07:35:40.631Z,21.43
2018-02-14T07:38:08.843Z,21.80
2018-02-14T07:40:36.282Z,27.47
2018-02-14T07:43:03.727Z,19.23
2018-02-14T07:45:31.163Z,24.37
2018-02-14T07:47:59.377Z,28.47
2018-02-14T07:50:27.590Z,26.90
2018-02-14T07:52:55.035Z,25.63
2018-02-14T07:55:22.466Z,36.40
2018-02-14T07:57:49.927Z,28.13
2018-02-14T08:00:18.048Z,27.73
2018-02-14T08:02:45.496Z,25.97
2018-02-14T08:05:13.705Z,22.57
2018-02-14T08:07:41.153Z,26.00
2018-02-14T08:10:08.582Z,27.90
2018-02-14T08:12:36.022Z,27.70
2018-02-14T08:15:04.227Z,28.33
2018-02-14T08:17:32.438Z,27.10
2018-02-14T08:20:00.634Z,25.07
2018-02-14T08:22:28.847Z,27.30
2018-02-14T08:24:56.281Z,26.93
2018-02-14T08:27:23.730Z,24.50
2018-02-14T08:29:51.162Z,22.67
2018-02-14T08:32:19.381Z,32.37
2018-02-14T08:34:47.590Z,31.13
2018-02-14T08:37:15.031Z,24.40
2018-02-14T08:39:42.473Z,36.60
2018-02-14T08:42:09.958Z,37.60
2018-02-14T08:44:37.399Z,26.60
2018-02-14T08:47:05.606Z,26.37
2018-02-14T08:49:33.054Z,32.73
2018-02-14T08:52:00.511Z,27.60
2018-02-14T08:54:27.948Z,31.77
2018-02-14T08:56:56.282Z,29.10
2018-02-14T08:59:23.731Z,28.70
2018-02-14T09:01:51.928Z,33.03
2018-02-14T09:04:19.370Z,26.73
2018-02-14T09:06:46.806Z,36.30
2018-02-14T09:09:14.251Z,29.70
2018-02-14T09:11:42.453Z,30.03
2018-02-14T09:14:10.660Z,28.07
2018-02-14T09:16:38.867Z,28.70
2018-02-14T09:19:06.310Z,30.17
2018-02-14T09:21:33.748Z,37.97
2018-02-14T09:24:01.195Z,31.17
2018-02-14T09:26:29.408Z,35.20
2018-02-14T09:28:57.611Z,32.87
2018-02-14T09:31:25.056Z,26.97
2018-02-14T09:33:52.494Z,38.80
2018-02-14T09:36:19.927Z,34.50
2018-02-14T09:38:47.376Z,30.00
2018-02-14T09:41:14.815Z,36.97
2018-02-14T09:43:43.032Z,33.50
2018-02-14T09:46:10.462Z,46.70
2018-02-14T09:48:37.911Z,37.03
2018-02-14T09:51:05.349Z,37.27
2018-02-14T09:53:33.579Z,49.00
2018-02-14T09:56:01.762Z,47.00
2018-02-14T09:58:29.970Z,31.50
2018-02-14T10:00:58.175Z,30.40
2018-02-14T10:03:25.614Z,30.17
2018-02-14T10:05:53.054Z,42.80
2018-02-14T10:08:20.498Z,34.17
2018-02-14T10:10:48.702Z,31.47
2018-02-14T10:13:16.914Z,35.20
2018-02-14T10:15:45.115Z,35.13
2018-02-14T10:18:12.554Z,37.77
2018-02-14T10:20:39.990Z,26.40
2018-02-14T10:23:07.427Z,32.13
2018-02-14T10:25:34.871Z,35.07
2018-02-14T10:28:02.315Z,33.23
2018-02-14T10:30:30.520Z,35.70
2018-02-14T10:32:57.963Z,34.07
2018-02-14T10:35:25.399Z,31.60
2018-02-14T10:37:52.838Z,31.33
2018-02-14T10:40:20.310Z,43.83
2018-02-14T10:42:47.715Z,34.00
2018-02-14T10:45:15.918Z,55.00
2018-02-14T10:47:43.400Z,36.63
2018-02-14T10:50:10.798Z,31.70
2018-02-14T10:52:38.234Z,35.33
2018-02-14T10:55:05.670Z,35.43
2018-02-14T10:57:33.106Z,32.80
2018-02-14T11:00:00.555Z,33.57
2018-02-14T11:02:28.000Z,43.17
2018-02-14T11:05:01.182Z,36.72
2018-02-14T11:07:28.614Z,33.53
2018-02-14T11:09:56.064Z,32.17
2018-02-14T11:12:24.262Z,36.53
2018-02-14T11:14:52.480Z,39.10
2018-02-14T11:17:19.914Z,33.13
2018-02-14T11:19:47.360Z,29.33
2018-02-14T11:22:14.787Z,35.17
2018-02-14T11:24:42.231Z,30.90
2018-02-14T11:27:09.676Z,35.90
2018-02-14T11:29:37.878Z,29.67
2018-02-14T11:32:06.082Z,29.37
2018-02-14T11:34:33.533Z,27.37
2018-02-14T11:37:00.972Z,30.93
2018-02-14T11:39:28.423Z,30.93
2018-02-14T11:41:56.622Z,32.47
2018-02-14T11:44:24.058Z,32.28
2018-02-14T11:46:52.258Z,34.10
2018-02-14T11:49:19.698Z,30.80
2018-02-14T11:51:47.135Z,31.23
2018-02-14T11:54:14.565Z,41.70
2018-02-14T11:56:41.998Z,28.17
2018-02-14T11:59:09.430Z,24.03
2018-02-14T12:01:36.870Z,29.10
2018-02-14T12:04:05.067Z,24.27
2018-02-14T12:06:32.506Z,29.03
2018-02-14T12:08:59.934Z,33.43
2018-02-14T12:11:28.143Z,29.00
2018-02-14T12:13:56.342Z,29.73
2018-02-14T12:16:24.551Z,24.83
2018-02-14T12:18:52.751Z,26.90
2018-02-14T12:21:20.960Z,34.20
2018-02-14T12:23:48.394Z,31.83
2018-02-14T12:26:15.827Z,39.83
2018-02-14T12:28:43.263Z,33.83
2018-02-14T12:31:10.698Z,24.30
2018-02-14T12:33:38.130Z,27.33
2018-02-14T12:36:05.566Z,26.60
2018-02-14T12:38:32.998Z,29.13
2018-02-14T12:41:01.202Z,22.47
2018-02-14T12:43:29.398Z,22.13
2018-02-14T12:45:57.616Z,25.07
2018-02-14T12:48:25.046Z,20.13
2018-02-14T12:50:52.486Z,16.87
2018-02-14T12:53:19.934Z,22.43
2018-02-14T12:55:48.142Z,14.67
2018-02-14T12:58:16.346Z,13.83
2018-02-14T13:00:44.542Z,15.90
2018-02-14T13:03:11.985Z,39.07
2018-02-14T13:05:39.432Z,18.33
2018-02-14T13:08:06.868Z,19.60
2018-02-14T13:10:35.073Z,19.20
2018-02-14T13:13:03.283Z,19.10
2018-02-14T13:15:31.496Z,19.10
2018-02-14T13:17:58.934Z,20.03
2018-02-14T13:20:26.372Z,18.00
2018-02-14T13:22:53.829Z,17.87
2018-02-14T13:25:21.259Z,16.77
2018-02-14T13:27:48.696Z,15.93
2018-02-14T13:30:16.520Z,26.03
2018-02-14T13:32:43.951Z,18.00
2018-02-14T13:35:11.423Z,16.75
2018-02-14T13:37:38.829Z,18.60
2018-02-14T13:40:06.268Z,21.37
2018-02-14T13:42:33.723Z,18.80
2018-02-14T13:45:01.154Z,21.03
2018-02-14T13:47:29.361Z,20.60
2018-02-14T13:49:56.790Z,20.27
2018-02-14T13:52:24.243Z,18.97
2018-02-14T13:54:52.521Z,18.27
2018-02-14T13:57:19.978Z,15.38
2018-02-14T13:59:48.202Z,19.95
2018-02-14T14:02:15.652Z,17.70
2018-02-14T14:04:43.110Z,17.10
2018-02-14T14:07:10.536Z,13.23
2018-02-14T14:09:38.739Z,14.77
2018-02-14T14:12:06.182Z,13.93
2018-02-14T14:14:33.615Z,16.53
2018-02-14T14:17:01.050Z,16.12
2018-02-14T14:19:28.482Z,19.53
2018-02-14T14:21:55.927Z,21.33
2018-02-14T14:24:23.383Z,20.98
2018-02-14T14:26:50.827Z,18.92
2018-02-14T14:29:18.267Z,20.27
2018-02-14T14:31:45.702Z,17.23
2018-02-14T14:34:13.135Z,18.50
2018-02-14T14:36:40.576Z,17.47
2018-02-14T14:39:08.008Z,13.27
2018-02-14T14:41:35.456Z,14.93
2018-02-14T14:44:02.890Z,18.27
2018-02-14T14:46:31.099Z,13.47
2018-02-14T14:48:58.590Z,18.03
2018-02-14T14:51:26.026Z,14.73
2018-02-14T14:53:53.458Z,16.13
2018-02-14T14:56:20.890Z,18.00
2018-02-14T14:58:48.324Z,16.70
2018-02-14T15:20:53.196Z,18.07
2018-02-14T15:23:20.638Z,22.80
2018-02-14T15:25:48.076Z,15.90
2018-02-14T15:28:15.522Z,18.05
2018-02-14T15:30:42.960Z,21.05
2018-02-14T15:33:10.394Z,17.93
2018-02-14T15:35:37.832Z,19.63
2018-02-14T15:38:05.278Z,22.40
2018-02-14T15:40:32.710Z,20.23
2018-02-14T15:43:00.923Z,23.50
2018-02-14T15:45:29.139Z,20.15
2018-02-14T15:47:56.607Z,18.35
2018-02-14T15:50:24.799Z,19.73
2018-02-14T15:52:53.005Z,25.43
2018-02-14T15:55:21.198Z,19.90
2018-02-14T15:57:49.411Z,16.60
2018-02-14T16:00:17.265Z,17.70
2018-02-14T16:02:44.689Z,19.53
2018-02-14T16:05:12.120Z,19.63
2018-02-14T16:07:39.570Z,22.42
2018-02-14T16:10:07.016Z,24.55
2018-02-14T16:12:35.222Z,25.20
2018-02-14T16:15:02.670Z,22.48
2018-02-14T16:17:30.106Z,29.83
2018-02-14T16:19:57.550Z,26.53
2018-02-14T16:22:25.762Z,23.23
2018-02-14T16:24:53.195Z,25.95
2018-02-14T16:27:20.639Z,24.33
2018-02-14T16:29:48.088Z,23.48
2018-02-14T16:32:16.299Z,24.00
2018-02-14T16:34:43.735Z,23.53
2018-02-14T16:37:11.184Z,26.40
2018-02-14T16:39:38.654Z,27.08
2018-02-14T16:42:06.062Z,24.35
2018-02-14T16:44:33.508Z,30.55
2018-02-14T16:47:00.943Z,35.67
2018-02-14T16:49:28.403Z,32.13
2018-02-14T16:51:55.834Z,33.03
2018-02-14T16:54:24.070Z,31.25
2018-02-14T16:56:51.498Z,29.40
2018-02-14T16:59:19.706Z,26.10
2018-02-14T17:01:47.942Z,26.17
2018-02-14T17:04:15.386Z,24.57
2018-02-14T17:06:43.586Z,26.27
2018-02-14T17:09:11.799Z,22.98
2018-02-14T17:11:39.222Z,25.58
2018-02-14T17:14:06.672Z,26.87
2018-02-14T17:16:34.112Z,19.67
2018-02-14T17:19:01.550Z,29.57
2018-02-14T17:21:28.978Z,26.17
2018-02-14T17:26:24.167Z,23.98
2018-02-14T17:28:52.379Z,30.15
2018-02-14T17:31:19.817Z,28.08
2018-02-14T17:33:47.254Z,29.92
2018-02-14T17:36:14.705Z,32.72
2018-02-14T17:38:42.915Z,26.10
2018-02-14T17:41:10.348Z,26.62
2018-02-14T17:43:37.794Z,21.75
2018-02-14T17:46:05.227Z,23.15
2018-02-14T17:48:32.674Z,22.20
2018-02-14T17:51:00.108Z,24.33
2018-02-14T17:53:27.556Z,32.97
2018-02-14T17:55:54.998Z,34.80
2018-02-14T17:58:22.434Z,28.45
2018-02-14T18:00:49.866Z,23.10
2018-02-14T18:03:17.307Z,20.42
2018-02-14T18:05:44.734Z,25.55
2018-02-14T18:08:12.178Z,26.95
2018-02-14T18:10:40.388Z,28.67
2018-02-14T18:13:07.875Z,24.77
2018-02-14T18:15:35.275Z,27.00
2018-02-14T18:18:02.714Z,30.90
2018-02-14T18:20:30.914Z,31.80
2018-02-14T18:22:59.136Z,41.40
2018-02-14T18:25:26.574Z,46.13
2018-02-14T18:27:54.006Z,46.65
2018-02-14T18:30:21.450Z,39.65
2018-02-14T18:32:49.664Z,38.05
2018-02-14T18:35:17.107Z,26.73
2018-02-14T18:37:44.554Z,33.53
2018-02-14T18:40:11.994Z,35.35
2018-02-14T18:42:40.220Z,34.60
2018-02-14T18:45:07.682Z,30.00
2018-02-14T18:47:35.888Z,30.88
2018-02-14T18:50:03.327Z,31.33
2018-02-14T18:52:30.771Z,29.70
2018-02-14T18:54:58.214Z,32.10
2018-02-14T18:57:26.413Z,38.60
2018-02-14T18:59:54.618Z,28.87
2018-02-14T19:02:22.830Z,27.40
2018-02-14T19:04:50.315Z,30.50
2018-02-14T19:07:17.750Z,38.30
2018-02-14T19:09:45.203Z,37.13
2018-02-14T19:12:13.429Z,36.63
2018-02-14T19:14:40.857Z,31.75
2018-02-14T19:17:08.307Z,34.63
2018-02-14T19:19:36.519Z,34.63
2018-02-14T19:22:04.748Z,38.15
2018-02-14T19:24:32.202Z,40.55
2018-02-14T19:27:00.400Z,39.17
2018-02-14T19:29:27.878Z,39.92
2018-02-14T19:31:56.074Z,37.75
2018-02-14T19:34:24.288Z,35.13
2018-02-14T19:36:51.745Z,37.08
2018-02-14T19:39:20.055Z,48.97
2018-02-14T19:41:48.262Z,39.50
2018-02-14T19:44:15.703Z,34.72
2018-02-14T19:46:43.146Z,38.17
2018-02-14T19:49:10.590Z,38.90
2018-02-14T19:51:38.806Z,35.75
2018-02-14T19:54:06.238Z,39.17
2018-02-14T19:56:33.696Z,31.05
2018-02-14T19:59:01.138Z,36.28
2018-02-14T20:01:28.627Z,38.47
2018-02-14T20:03:56.066Z,41.70
2018-02-14T20:06:23.503Z,36.45
2018-02-14T20:08:50.950Z,42.92
2018-02-14T20:11:19.165Z,39.00
2018-02-14T20:13:47.366Z,35.30
2018-02-14T20:16:14.811Z,38.03
2018-02-14T20:18:42.250Z,47.35
2018-02-14T20:21:09.694Z,38.40
2018-02-14T20:23:37.911Z,42.10
2018-02-14T20:26:05.346Z,45.13
2018-02-14T20:28:32.807Z,39.60
2018-02-14T20:31:00.252Z,39.90
2018-02-14T20:33:27.710Z,41.03
2018-02-14T20:35:55.919Z,37.17
2018-02-14T20:38:24.127Z,35.27
2018-02-14T20:40:51.570Z,36.13
2018-02-14T20:43:19.005Z,36.25
2018-02-14T20:45:46.447Z,41.10
2018-02-14T20:48:14.676Z,38.05
2018-02-14T20:50:42.119Z,32.33
2018-02-14T20:53:09.554Z,35.80
2018-02-14T20:55:37.022Z,32.25
2018-02-14T20:58:04.512Z,32.17
2018-02-14T21:00:31.962Z,33.50
2018-02-14T21:03:00.154Z,35.50
2018-02-14T21:05:28.362Z,33.42
2018-02-14T21:07:55.806Z,38.75
2018-02-14T21:10:23.279Z,36.53
2018-02-14T21:12:50.691Z,43.60
2018-02-14T21:15:18.920Z,42.03
2018-02-14T21:17:46.406Z,40.17
2018-02-14T21:20:13.866Z,45.40
2018-02-14T21:22:42.075Z,42.10
2018-02-14T21:25:09.518Z,43.10
2018-02-14T21:27:36.976Z,46.17
2018-02-14T21:30:05.178Z,43.17
2018-02-14T21:32:32.627Z,49.10
2018-02-14T21:35:00.063Z,46.40
2018-02-14T21:37:27.513Z,42.65
2018-02-14T21:39:54.954Z,44.65
2018-02-14T21:42:22.411Z,48.25
2018-02-14T21:44:50.606Z,42.95
2018-02-14T21:47:18.821Z,42.75
2018-02-14T21:49:47.031Z,40.08
2018-02-14T21:52:14.474Z,45.38
2018-02-14T21:54:41.907Z,40.00
2018-02-14T21:57:09.346Z,45.47
2018-02-14T21:59:37.551Z,42.70
2018-02-14T22:02:05.778Z,36.73
2018-02-14T22:04:33.217Z,39.20
2018-02-14T22:07:00.647Z,37.33
2018-02-14T22:09:28.096Z,43.23
2018-02-14T22:11:56.290Z,41.80
2018-02-14T22:14:24.498Z,37.63
2018-02-14T22:16:51.930Z,38.70
2018-02-14T22:19:19.374Z,44.87
2018-02-14T22:21:46.806Z,35.43
2018-02-14T22:24:14.250Z,35.73
2018-02-14T22:26:41.686Z,35.53
2018-02-14T22:29:09.890Z,39.80
2018-02-14T22:31:38.135Z,43.53
2018-02-14T22:34:05.582Z,36.43
2018-02-14T22:36:33.019Z,35.47
2018-02-14T22:39:00.463Z,31.13
2018-02-14T22:41:27.898Z,38.93
2018-02-14T22:43:55.342Z,31.80
2018-02-14T22:46:22.779Z,41.07
2018-02-14T22:48:50.996Z,42.40
2018-02-14T22:51:18.434Z,36.63
2018-02-14T22:53:45.869Z,37.60
2018-02-14T22:56:13.306Z,34.33
2018-02-14T22:58:40.746Z,42.47
2018-02-14T23:01:08.194Z,40.40
2018-02-14T23:03:35.617Z,35.27
2018-02-14T23:06:03.070Z,43.97
2018-02-14T23:08:30.515Z,34.93
2018-02-14T23:10:58.736Z,47.92
2018-02-14T23:13:26.171Z,41.20
2018-02-14T23:15:53.610Z,40.70
2018-02-14T23:18:21.050Z,40.40
2018-02-14T23:20:49.271Z,37.73
2018-02-14T23:23:16.726Z,40.83
2018-02-14T23:25:44.946Z,43.65
2018-02-14T23:28:13.150Z,44.83
2018-02-14T23:30:40.601Z,40.55
2018-02-14T23:33:08.810Z,44.25
2018-02-14T23:35:36.259Z,42.67
2018-02-14T23:38:03.711Z,38.13
2018-02-14T23:40:31.151Z,40.50
2018-02-14T23:42:59.358Z,38.47
2018-02-14T23:45:27.559Z,36.22
2018-02-14T23:47:55.778Z,39.35
2018-02-14T23:50:23.214Z,37.33
2018-02-14T23:52:50.666Z,36.60
2018-02-14T23:55:18.102Z,33.97
2018-02-14T23:57:45.555Z,39.20
